Time;durP1;ratioP1;P1;durP2;ratioP2;P2;SDS_P1;SDS_P2;PMS_P1;PMS_P2;Temp;Humidity;BMP_temperature;BMP_pressure;BME280_temperature;BME280_humidity;BME280_pressure;Samples;Min_cycle;Max_cycle;Signal;HPM_P1;HPM_P2
2022/02/27 00:00:00;;;;;;;6.30;3.58;;;24.80;74.10;;;;;;5184478;22;20340;-62
2022/02/27 00:02:23;;;;;;;6.88;3.20;;;24.90;74.20;;;;;;5185794;22;20108;-63
2022/02/27 00:04:45;;;;;;;4.43;2.80;;;24.90;74.20;;;;;;5191959;22;20041;-63
2022/02/27 00:07:08;;;;;;;4.28;2.70;;;24.90;74.30;;;;;;5186828;22;20022;-64
2022/02/27 00:09:31;;;;;;;4.75;3.25;;;24.90;74.20;;;;;;5186366;22;20776;-63
2022/02/27 00:11:53;;;;;;;5.90;2.78;;;24.90;74.30;;;;;;5189180;22;20015;-63
2022/02/27 00:14:16;;;;;;;5.20;2.78;;;24.90;74.30;;;;;;5189846;22;20470;-62
2022/02/27 00:16:39;;;;;;;5.07;2.25;;;24.90;74.30;;;;;;5186783;22;20003;-62
2022/02/27 00:19:02;;;;;;;6.45;2.65;;;24.90;74.20;;;;;;5192777;22;20023;-62
2022/02/27 00:21:24;;;;;;;3.87;2.47;;;25.00;74.30;;;;;;5189709;22;20003;-59
2022/02/27 00:23:47;;;;;;;4.97;2.28;;;24.90;74.40;;;;;;5192422;22;20018;-63
2022/02/27 00:26:09;;;;;;;4.43;2.40;;;24.90;74.40;;;;;;5191907;22;20011;-63
2022/02/27 00:28:32;;;;;;;4.47;2.40;;;24.90;74.40;;;;;;5180515;22;20029;-63
2022/02/27 00:30:55;;;;;;;6.22;2.28;;;24.90;74.50;;;;;;5172367;22;20017;-62
2022/02/27 00:34:13;;;;;;;4.03;2.10;;;25.00;74.60;;;;;;5179990;22;20783;-62
2022/02/27 00:36:36;;;;;;;3.83;2.13;;;24.90;74.50;;;;;;5168404;22;20497;-60
2022/02/27 00:38:58;;;;;;;3.88;2.00;;;25.00;75.20;;;;;;5169043;22;20386;-62
2022/02/27 00:41:21;;;;;;;3.40;1.85;;;25.00;74.70;;;;;;5166304;22;20066;-62
2022/02/27 00:43:43;;;;;;;3.80;2.15;;;25.00;74.70;;;;;;5169304;22;20210;-62
2022/02/27 00:46:06;;;;;;;3.42;2.13;;;25.00;74.70;;;;;;5169029;22;20014;-63
2022/02/27 00:48:28;;;;;;;4.00;2.20;;;25.00;74.70;;;;;;5163752;22;20015;-62
2022/02/27 00:50:51;;;;;;;3.85;1.90;;;25.10;74.70;;;;;;5160901;22;20019;-62
2022/02/27 00:53:13;;;;;;;2.83;1.60;;;25.10;74.80;;;;;;5171094;22;20022;-63
2022/02/27 00:55:37;;;;;;;3.88;1.85;;;25.10;74.70;;;;;;5163959;22;20039;-63
2022/02/27 00:57:59;;;;;;;3.05;1.80;;;25.10;75.30;;;;;;5165241;22;20034;-62
2022/02/27 01:00:21;;;;;;;3.97;1.58;;;25.10;74.80;;;;;;5167161;22;20011;-62
2022/02/27 01:02:44;;;;;;;3.17;1.65;;;25.10;74.70;;;;;;5162454;22;20934;-61
2022/02/27 01:05:07;;;;;;;3.20;1.73;;;25.10;74.80;;;;;;5164920;22;20114;-62
2022/02/27 01:07:30;;;;;;;2.67;1.92;;;25.10;74.80;;;;;;5169399;22;20019;-61
2022/02/27 01:09:52;;;;;;;4.38;1.83;;;25.10;74.80;;;;;;5168749;22;20015;-62
2022/02/27 01:12:15;;;;;;;3.10;1.42;;;25.10;74.80;;;;;;5164165;22;20161;-62
2022/02/27 01:14:37;;;;;;;4.50;1.70;;;25.10;74.80;;;;;;5171707;22;20023;-62
2022/02/27 01:17:02;;;;;;;2.45;1.35;;;25.10;74.80;;;;;;5141490;22;20081;-62
2022/02/27 01:19:25;;;;;;;3.85;1.70;;;25.20;74.80;;;;;;5166560;22;20088;-62
2022/02/27 01:21:47;;;;;;;3.20;1.30;;;25.20;74.80;;;;;;5171932;22;20019;-61
2022/02/27 01:24:10;;;;;;;2.22;1.27;;;25.20;74.80;;;;;;5170817;22;20073;-62
2022/02/27 01:26:33;;;;;;;2.28;1.08;;;25.20;74.80;;;;;;5166223;22;20458;-62
2022/02/27 01:28:56;;;;;;;3.42;1.65;;;25.20;74.80;;;;;;5174014;22;20837;-63
2022/02/27 01:31:18;;;;;;;2.72;1.17;;;25.20;74.80;;;;;;5168911;22;20011;-63
2022/02/27 01:33:41;;;;;;;2.85;1.02;;;25.20;74.80;;;;;;5166187;22;20410;-63
2022/02/27 01:36:03;;;;;;;2.60;1.30;;;25.20;74.80;;;;;;5168900;22;20282;-62
2022/02/27 01:38:26;;;;;;;4.85;1.30;;;25.20;74.80;;;;;;5173932;22;20029;-63
2022/02/27 01:40:48;;;;;;;1.83;0.90;;;25.20;74.80;;;;;;5163888;22;20022;-63
2022/02/27 01:43:11;;;;;;;2.63;1.10;;;25.20;74.80;;;;;;5166585;22;20084;-62
2022/02/27 01:45:34;;;;;;;3.58;1.00;;;25.30;74.80;;;;;;5170256;22;20026;-62
2022/02/27 01:47:56;;;;;;;1.73;1.10;;;25.30;74.80;;;;;;5167393;22;20684;-62
2022/02/27 01:50:18;;;;;;;2.15;1.13;;;25.30;74.80;;;;;;5166491;22;20606;-61
2022/02/27 01:52:41;;;;;;;2.75;1.15;;;25.30;74.80;;;;;;5172288;22;20019;-63
2022/02/27 01:55:05;;;;;;;2.72;1.17;;;25.30;74.70;;;;;;5167627;22;20552;-62
2022/02/27 01:57:28;;;;;;;2.92;1.20;;;25.30;74.70;;;;;;5172709;22;20043;-62
2022/02/27 01:59:51;;;;;;;1.83;1.17;;;25.30;74.70;;;;;;5173174;22;20019;-62
2022/02/27 02:02:13;;;;;;;2.85;0.90;;;25.30;74.70;;;;;;5169357;22;20057;-63
2022/02/27 02:04:36;;;;;;;0.93;0.80;;;25.40;74.90;;;;;;5170089;22;21064;-63
2022/02/27 02:06:59;;;;;;;3.28;1.08;;;25.40;74.50;;;;;;5175564;22;20506;-62
2022/02/27 02:09:21;;;;;;;2.20;1.00;;;25.40;74.80;;;;;;5169925;22;20442;-63
2022/02/27 02:11:43;;;;;;;1.92;0.80;;;25.40;75.40;;;;;;5169841;22;20075;-63
2022/02/27 02:14:07;;;;;;;2.97;0.88;;;25.40;74.70;;;;;;5175325;22;20034;-63
2022/02/27 02:16:50;;;;;;;2.33;1.00;;;25.40;74.80;;;;;;5168232;22;20116;-62
2022/02/27 02:19:13;;;;;;;1.95;0.93;;;25.40;74.80;;;;;;5170300;22;20096;-63
2022/02/27 02:21:44;;;;;;;2.60;0.70;;;25.40;74.80;;;;;;5166447;22;20050;-63
2022/02/27 02:24:07;;;;;;;1.45;0.82;;;25.40;74.80;;;;;;5172982;22;20622;-63
2022/02/27 02:26:30;;;;;;;2.28;0.90;;;25.40;74.70;;;;;;5170307;22;20571;-62
2022/02/27 02:28:53;;;;;;;1.75;0.90;;;25.40;74.70;;;;;;5174837;22;20011;-62
2022/02/27 02:31:15;;;;;;;2.00;0.75;;;25.40;74.70;;;;;;5173406;22;20050;-62
2022/02/27 02:33:38;;;;;;;2.83;1.08;;;25.40;74.70;;;;;;5168700;22;20019;-62
2022/02/27 02:36:01;;;;;;;3.20;1.10;;;25.40;74.70;;;;;;5142263;22;20084;-61
2022/02/27 02:38:23;;;;;;;2.00;0.90;;;25.50;74.70;;;;;;5175507;22;20046;-61
2022/02/27 02:40:46;;;;;;;0.95;0.82;;;25.50;74.70;;;;;;5168660;22;20043;-62
2022/02/27 02:43:13;;;;;;;1.35;0.95;;;25.50;74.70;;;;;;5173206;22;20027;-61
2022/02/27 02:45:35;;;;;;;3.17;1.00;;;25.50;74.70;;;;;;5173530;22;20034;-62
2022/02/27 02:47:59;;;;;;;1.38;0.57;;;25.50;74.60;;;;;;5170051;22;20090;-61
2022/02/27 02:50:22;;;;;;;0.95;0.60;;;25.50;74.60;;;;;;5177165;22;20935;-62
2022/02/27 02:52:45;;;;;;;1.85;0.90;;;25.50;74.50;;;;;;5172721;22;20400;-61
2022/02/27 02:55:13;;;;;;;1.75;0.65;;;25.60;74.60;;;;;;5170375;22;20030;-62
2022/02/27 02:57:36;;;;;;;1.88;0.70;;;25.60;74.50;;;;;;5174605;22;20019;-63
2022/02/27 02:59:58;;;;;;;1.08;0.80;;;25.60;74.50;;;;;;5169103;22;20022;-62
2022/02/27 03:02:21;;;;;;;2.47;0.82;;;25.60;74.40;;;;;;5171804;22;20046;-61
2022/02/27 03:04:44;;;;;;;0.50;0.50;;;25.70;74.40;;;;;;5169542;22;20363;-62
2022/02/27 03:07:06;;;;;;;0.77;0.57;;;25.70;74.30;;;;;;5168362;22;20038;-61
2022/02/27 03:09:28;;;;;;;1.58;0.50;;;25.70;74.30;;;;;;5170300;22;20019;-62
2022/02/27 03:11:51;;;;;;;2.75;0.70;;;25.70;74.20;;;;;;5175612;22;20023;-61
2022/02/27 03:14:13;;;;;;;0.98;0.63;;;25.70;74.20;;;;;;5170806;22;20805;-62
2022/02/27 03:16:36;;;;;;;0.75;0.60;;;25.70;74.10;;;;;;5168290;22;20007;-62
2022/02/27 03:18:58;;;;;;;1.65;0.70;;;25.80;74.10;;;;;;5177693;22;20268;-62
2022/02/27 03:21:21;;;;;;;0.95;0.68;;;25.80;74.10;;;;;;5173006;22;20018;-61
2022/02/27 03:23:43;;;;;;;1.23;0.63;;;25.80;74.00;;;;;;5175975;22;20471;-62
2022/02/27 03:26:06;;;;;;;1.65;0.68;;;25.80;74.00;;;;;;5181410;22;20040;-61
2022/02/27 03:28:28;;;;;;;1.55;0.80;;;25.90;74.00;;;;;;5171284;22;20025;-62
2022/02/27 03:30:51;;;;;;;1.70;0.68;;;25.90;74.00;;;;;;5176707;22;20759;-62
2022/02/27 03:33:13;;;;;;;1.20;0.50;;;25.90;74.50;;;;;;5180263;22;20019;-61
2022/02/27 03:35:38;;;;;;;1.02;0.60;;;25.90;73.90;;;;;;5181594;22;20070;-62
2022/02/27 03:38:00;;;;;;;1.17;0.63;;;25.90;73.80;;;;;;5168553;22;20077;-62
2022/02/27 03:40:24;;;;;;;4.57;1.10;;;26.00;73.80;;;;;;5179446;22;20014;-61
2022/02/27 03:42:47;;;;;;;1.33;0.70;;;26.00;73.30;;;;;;5177342;22;20019;-63
2022/02/27 03:45:10;;;;;;;1.38;0.60;;;26.00;73.70;;;;;;5176215;22;20054;-62
2022/02/27 03:47:32;;;;;;;2.03;0.90;;;26.00;73.70;;;;;;5180653;22;20011;-62
2022/02/27 03:49:55;;;;;;;2.20;0.57;;;26.10;73.70;;;;;;5178556;22;20034;-62
2022/02/27 03:52:17;;;;;;;1.83;0.73;;;26.10;73.70;;;;;;5174344;22;20072;-62
2022/02/27 03:54:40;;;;;;;1.35;0.60;;;26.10;73.60;;;;;;5177805;22;20023;-62
2022/02/27 03:57:02;;;;;;;1.05;0.63;;;26.10;73.60;;;;;;5181444;22;20785;-62
2022/02/27 03:59:25;;;;;;;2.45;0.75;;;26.10;73.60;;;;;;5175797;22;20019;-62
2022/02/27 04:01:47;;;;;;;1.50;0.70;;;26.10;73.50;;;;;;5172393;22;20011;-62
2022/02/27 04:04:10;;;;;;;2.17;0.90;;;26.10;73.50;;;;;;5182101;22;20019;-62
2022/02/27 04:06:32;;;;;;;2.15;1.20;;;26.10;73.40;;;;;;5174924;22;20449;-61
2022/02/27 04:08:55;;;;;;;2.22;0.75;;;26.10;73.50;;;;;;5181579;22;20046;-61
2022/02/27 04:11:17;;;;;;;2.25;0.65;;;26.20;73.50;;;;;;5183382;22;20099;-61
2022/02/27 04:13:40;;;;;;;1.27;0.40;;;26.20;73.40;;;;;;5180290;22;20583;-61
2022/02/27 04:16:02;;;;;;;0.57;0.50;;;26.20;73.40;;;;;;5182338;22;20015;-60
2022/02/27 04:18:25;;;;;;;1.55;0.73;;;26.20;73.40;;;;;;5191272;22;20443;-61
2022/02/27 04:20:47;;;;;;;0.80;0.50;;;26.20;73.30;;;;;;5175627;22;20864;-61
2022/02/27 04:23:10;;;;;;;2.13;0.80;;;26.20;73.30;;;;;;5184087;22;20015;-62
2022/02/27 04:25:32;;;;;;;2.53;0.68;;;26.30;73.40;;;;;;5185145;22;20096;-62
2022/02/27 04:27:56;;;;;;;1.52;0.88;;;26.30;73.40;;;;;;5185080;22;20073;-61
2022/02/27 04:30:18;;;;;;;;;;;26.30;73.30;;;;;;5196583;22;20054;-62
2022/02/27 04:33:08;;;;;;;1.70;0.70;;;26.30;73.40;;;;;;5194960;22;20333;-60
2022/02/27 04:48:48;;;;;;;3.05;0.82;;;26.30;73.30;;;;;;5166041;22;20114;-61
2022/02/27 04:51:11;;;;;;;1.48;0.90;;;26.30;73.30;;;;;;5157103;22;20049;-62
2022/02/27 04:53:34;;;;;;;2.33;0.95;;;26.30;73.30;;;;;;5164174;22;20015;-61
2022/02/27 04:55:57;;;;;;;0.80;0.60;;;26.30;73.30;;;;;;5169307;22;20014;-61
2022/02/27 04:58:20;;;;;;;1.10;0.52;;;26.30;73.30;;;;;;5159143;22;20567;-61
2022/02/27 05:00:42;;;;;;;1.50;0.65;;;26.30;73.30;;;;;;5165741;22;20011;-62
2022/02/27 05:03:05;;;;;;;1.23;0.70;;;26.40;73.50;;;;;;5161816;22;20019;-61
2022/02/27 05:05:27;;;;;;;1.83;0.68;;;26.40;73.40;;;;;;5164326;22;20022;-61
2022/02/27 05:07:50;;;;;;;2.05;0.93;;;26.30;73.40;;;;;;5163709;22;20976;-61
2022/02/27 05:10:12;;;;;;;1.45;0.70;;;26.40;73.40;;;;;;5172102;22;20131;-61
2022/02/27 05:12:36;;;;;;;2.05;0.70;;;26.40;73.40;;;;;;5164665;22;20446;-60
2022/02/27 05:14:58;;;;;;;1.52;0.75;;;26.40;73.40;;;;;;5166384;22;20023;-61
2022/02/27 05:17:21;;;;;;;1.55;0.73;;;26.40;73.40;;;;;;5173972;22;20788;-60
2022/02/27 05:19:43;;;;;;;2.47;0.95;;;26.40;73.40;;;;;;5168112;22;20512;-61
2022/02/27 05:22:06;;;;;;;2.90;0.63;;;;;;;;;;5167938;22;20076;-63
2022/02/27 05:24:29;;;;;;;3.28;1.00;;;;;;;;;;5147428;22;20111;-60
2022/02/27 05:26:51;;;;;;;2.10;0.82;;;;;;;;;;5169103;22;20011;-62
2022/02/27 05:29:13;;;;;;;2.92;0.82;;;;;;;;;;5169914;22;20003;-62
2022/02/27 05:31:36;;;;;;;1.38;0.70;;;;;;;;;;5176882;22;20355;-62
2022/02/27 05:33:58;;;;;;;0.95;0.55;;;26.50;73.40;;;;;;5169823;22;20023;-62
2022/02/27 05:36:20;;;;;;;2.03;0.73;;;26.70;73.00;;;;;;5170088;22;20091;-62
2022/02/27 05:38:43;;;;;;;1.20;0.68;;;26.70;72.90;;;;;;5176386;22;20019;-62
2022/02/27 05:41:06;;;;;;;3.05;1.38;;;26.80;72.90;;;;;;5158053;22;20459;-60
2022/02/27 05:43:29;;;;;;;1.65;0.80;;;26.80;72.70;;;;;;5165815;22;20100;-61
2022/02/27 05:45:51;;;;;;;5.38;0.70;;;26.90;72.60;;;;;;5170897;22;20096;-61
2022/02/27 05:48:14;;;;;;;4.15;0.90;;;26.90;72.50;;;;;;5164204;22;20102;-66
2022/02/27 05:50:36;;;;;;;2.25;0.63;;;27.00;72.60;;;;;;5162555;22;20122;-63
2022/02/27 05:52:58;;;;;;;2.85;0.77;;;27.10;72.70;;;;;;5171565;22;20022;-63
2022/02/27 05:55:21;;;;;;;3.97;1.00;;;27.10;72.70;;;;;;5169861;22;20015;-62
2022/02/27 05:57:43;;;;;;;2.38;0.68;;;27.10;72.70;;;;;;5166686;22;20019;-63
2022/02/27 06:00:08;;;;;;;2.78;0.63;;;27.20;72.80;;;;;;5169875;22;20015;-60
2022/02/27 06:02:30;;;;;;;3.42;0.90;;;27.20;72.70;;;;;;5165077;22;20022;-61
2022/02/27 06:04:53;;;;;;;2.40;0.80;;;27.20;72.80;;;;;;5160632;22;20059;-60
2022/02/27 06:07:15;;;;;;;2.95;0.82;;;27.30;72.80;;;;;;5166216;22;20931;-61
2022/02/27 06:09:38;;;;;;;7.32;0.90;;;27.30;72.80;;;;;;5170207;22;20026;-65
2022/02/27 06:12:01;;;;;;;4.37;0.83;;;27.30;72.90;;;;;;5162162;22;20042;-61
2022/02/27 06:14:23;;;;;;;1.60;0.68;;;27.30;72.90;;;;;;5170066;22;20367;-62
2022/02/27 06:16:46;;;;;;;2.70;0.80;;;27.30;73.00;;;;;;5171320;22;20021;-62
2022/02/27 06:19:08;;;;;;;1.70;0.65;;;27.40;73.00;;;;;;5164732;22;20019;-61
2022/02/27 06:21:31;;;;;;;2.88;0.88;;;27.30;72.90;;;;;;5171170;22;20331;-62
2022/02/27 06:23:54;;;;;;;1.90;0.70;;;27.40;73.00;;;;;;5177758;22;20049;-60
2022/02/27 06:26:17;;;;;;;2.25;0.75;;;27.40;73.00;;;;;;5171773;22;20015;-61
2022/02/27 06:28:40;;;;;;;3.90;0.95;;;27.40;73.00;;;;;;5174208;22;20015;-60
2022/02/27 06:31:02;;;;;;;3.13;0.75;;;27.40;73.00;;;;;;5180713;22;20011;-61
2022/02/27 06:33:25;;;;;;;2.85;0.60;;;27.40;73.00;;;;;;5167340;22;20022;-59
2022/02/27 06:35:47;;;;;;;2.70;0.45;;;27.40;72.90;;;;;;5169092;22;20101;-63
2022/02/27 06:38:10;;;;;;;2.88;0.88;;;27.40;73.00;;;;;;5179732;22;20104;-64
2022/02/27 06:40:33;;;;;;;13.00;1.30;;;27.50;73.00;;;;;;5174058;22;20027;-64
2022/02/27 06:42:56;;;;;;;0.80;0.80;;;27.40;72.40;;;;;;5176618;22;20696;-63
2022/02/27 06:45:18;;;;;;;2.80;1.10;;;27.40;72.20;;;;;;5183394;22;20015;-63
2022/02/27 06:47:41;;;;;;;3.93;1.27;;;27.40;72.00;;;;;;5174404;22;20015;-63
2022/02/27 06:50:05;;;;;;;2.70;1.02;;;27.40;72.00;;;;;;5176084;22;20104;-64
2022/02/27 06:52:28;;;;;;;2.22;0.98;;;27.40;72.00;;;;;;5180809;22;20146;-63
2022/02/27 06:54:51;;;;;;;1.90;1.00;;;27.40;72.00;;;;;;5174720;22;20019;-63
2022/02/27 06:57:13;;;;;;;3.03;1.30;;;27.40;72.00;;;;;;5170661;22;20852;-65
2022/02/27 06:59:36;;;;;;;2.58;1.08;;;27.40;72.00;;;;;;5178300;22;20019;-63
2022/02/27 07:01:58;;;;;;;2.22;1.15;;;27.30;71.80;;;;;;5170311;22;20518;-62
2022/02/27 07:04:21;;;;;;;3.33;1.08;;;27.30;71.90;;;;;;5170665;22;20023;-62
2022/02/27 07:06:43;;;;;;;4.47;1.00;;;27.40;72.30;;;;;;5178572;22;20077;-60
2022/02/27 07:09:07;;;;;;;7.50;1.17;;;27.40;72.40;;;;;;5173076;22;20113;-60
2022/02/27 07:11:29;;;;;;;2.60;0.65;;;27.40;72.50;;;;;;5163523;22;20101;-64
2022/02/27 07:13:51;;;;;;;4.22;1.00;;;27.40;72.60;;;;;;5178547;22;20344;-61
2022/02/27 07:16:15;;;;;;;6.15;1.05;;;27.40;72.60;;;;;;5170931;22;20015;-61
2022/02/27 07:18:38;;;;;;;2.47;0.93;;;27.40;72.80;;;;;;5168000;22;20728;-60
2022/02/27 07:21:00;;;;;;;2.35;0.75;;;27.40;72.70;;;;;;5175168;22;20411;-62
2022/02/27 07:23:22;;;;;;;3.80;0.85;;;27.40;72.90;;;;;;5179882;22;20473;-64
2022/02/27 07:25:45;;;;;;;3.05;0.75;;;27.50;73.00;;;;;;5179895;22;20022;-64
2022/02/27 07:28:08;;;;;;;2.42;0.90;;;27.50;72.90;;;;;;5182372;22;20147;-63
2022/02/27 07:30:30;;;;;;;4.67;0.57;;;27.50;73.00;;;;;;5179995;22;20050;-63
2022/02/27 07:32:53;;;;;;;1.75;0.70;;;27.50;73.00;;;;;;5180204;22;20096;-61
2022/02/27 07:35:15;;;;;;;5.00;1.00;;;27.50;73.00;;;;;;5178826;22;20088;-61
2022/02/27 07:37:38;;;;;;;12.00;1.33;;;27.50;73.00;;;;;;5180723;22;20479;-60
2022/02/27 07:40:01;;;;;;;3.10;0.60;;;27.50;73.20;;;;;;5167375;22;20011;-61
2022/02/27 07:42:23;;;;;;;1.23;0.50;;;27.50;73.10;;;;;;5168400;22;20130;-62
2022/02/27 07:44:46;;;;;;;2.53;0.80;;;27.50;73.10;;;;;;5142216;22;20466;-61
2022/02/27 07:47:09;;;;;;;1.85;0.60;;;27.50;73.20;;;;;;5168543;22;20015;-62
2022/02/27 07:49:31;;;;;;;0.98;0.45;;;27.60;73.20;;;;;;5137452;22;20925;-63
2022/02/27 07:51:54;;;;;;;2.92;0.60;;;27.60;73.20;;;;;;5174140;22;20700;-60
2022/02/27 07:54:17;;;;;;;3.37;0.57;;;27.50;73.30;;;;;;5159814;22;20019;-62
2022/02/27 07:56:39;;;;;;;1.75;0.52;;;27.60;73.30;;;;;;5168026;22;20011;-60
2022/02/27 07:59:02;;;;;;;2.95;0.77;;;27.60;73.30;;;;;;5188360;22;20644;-63
2022/02/27 08:01:25;;;;;;;0.55;0.35;;;27.60;73.30;;;;;;5182854;22;20019;-64
2022/02/27 08:03:48;;;;;;;0.50;0.50;;;27.60;72.70;;;;;;5181536;22;20196;-62
2022/02/27 08:06:10;;;;;;;3.40;0.60;;;27.60;73.20;;;;;;5175348;22;20015;-58
2022/02/27 08:08:33;;;;;;;3.20;0.70;;;27.60;73.60;;;;;;5169139;22;20027;-61
2022/02/27 08:10:56;;;;;;;1.23;0.27;;;27.60;73.20;;;;;;5168185;22;20015;-66
2022/02/27 08:13:18;;;;;;;3.33;0.98;;;27.60;73.20;;;;;;5180155;22;20102;-74
2022/02/27 08:15:40;;;;;;;0.68;0.40;;;27.60;73.50;;;;;;5172113;22;20015;-69
2022/02/27 08:18:03;;;;;;;4.75;0.75;;;27.60;73.40;;;;;;5173206;22;20011;-65
2022/02/27 08:20:25;;;;;;;0.60;0.30;;;27.60;73.60;;;;;;5183870;22;20007;-65
2022/02/27 08:22:48;;;;;;;5.72;0.68;;;27.60;73.60;;;;;;5144783;22;20042;-65
2022/02/27 08:25:15;;;;;;;1.75;0.75;;;27.60;73.70;;;;;;5174515;22;20104;-63
2022/02/27 08:27:38;;;;;;;0.43;0.32;;;27.60;73.60;;;;;;5187325;22;20019;-65
2022/02/27 08:30:01;;;;;;;1.55;0.30;;;27.60;73.50;;;;;;5174062;22;20019;-67
2022/02/27 08:32:23;;;;;;;1.65;0.32;;;27.70;73.60;;;;;;5182504;22;20015;-64
2022/02/27 08:34:46;;;;;;;1.42;0.40;;;27.70;73.50;;;;;;5189332;22;20066;-64
2022/02/27 08:37:18;;;;;;;0.65;0.30;;;27.70;73.50;;;;;;5191412;22;20007;-62
2022/02/27 08:39:40;;;;;;;2.15;0.40;;;27.70;73.50;;;;;;5189000;22;20090;-63
2022/02/27 08:42:04;;;;;;;1.15;0.30;;;27.70;73.40;;;;;;5187948;22;20011;-64
2022/02/27 08:44:28;;;;;;;0.47;0.20;;;27.70;73.30;;;;;;5185295;22;20709;-63
2022/02/27 08:46:50;;;;;;;1.50;0.50;;;27.80;73.40;;;;;;5198758;22;20007;-64
2022/02/27 08:49:12;;;;;;;0.30;0.30;;;27.80;73.30;;;;;;5192983;22;20015;-66
2022/02/27 08:51:35;;;;;;;0.35;0.30;;;27.80;73.20;;;;;;5177489;22;20113;-65
2022/02/27 08:53:58;;;;;;;1.67;0.38;;;27.80;73.20;;;;;;5177786;22;20775;-65
2022/02/27 08:56:20;;;;;;;2.88;0.73;;;27.80;73.20;;;;;;5172064;22;20268;-67
2022/02/27 08:58:43;;;;;;;0.60;0.60;;;27.80;73.80;;;;;;5171315;22;20365;-66
2022/02/27 09:01:05;;;;;;;1.60;0.50;;;27.90;73.20;;;;;;5174184;22;20011;-67
2022/02/27 09:03:28;;;;;;;2.47;0.50;;;27.80;73.10;;;;;;5169373;22;20023;-68
2022/02/27 09:05:51;;;;;;;1.98;0.40;;;27.80;73.10;;;;;;5172993;22;20050;-69
2022/02/27 09:08:13;;;;;;;;;;;27.90;73.30;;;;;;5176854;22;20011;-63
2022/02/27 09:10:36;;;;;;;2.53;0.52;;;27.80;73.10;;;;;;5171120;22;19911;-65
2022/02/27 09:12:58;;;;;;;0.88;0.35;;;27.90;73.20;;;;;;5168325;22;20022;-67
2022/02/27 09:15:21;;;;;;;0.47;0.45;;;27.90;73.20;;;;;;5179102;22;20896;-66
2022/02/27 09:17:43;;;;;;;1.92;0.70;;;27.90;73.30;;;;;;5182669;22;20474;-66
2022/02/27 09:20:08;;;;;;;1.02;0.63;;;27.90;73.30;;;;;;5177845;22;20015;-67
2022/02/27 09:22:30;;;;;;;3.80;0.50;;;27.90;73.40;;;;;;5180986;22;20988;-67
2022/02/27 09:24:54;;;;;;;0.50;0.47;;;27.90;73.30;;;;;;5181279;22;20220;-69
2022/02/27 09:27:16;;;;;;;0.73;0.60;;;27.90;73.40;;;;;;5174222;22;20098;-65
2022/02/27 09:29:38;;;;;;;1.73;0.28;;;27.90;73.30;;;;;;5181216;22;20496;-66
2022/02/27 09:32:01;;;;;;;1.85;0.50;;;27.90;73.50;;;;;;5181674;22;20022;-71
2022/02/27 09:34:24;;;;;;;1.55;0.40;;;27.90;74.10;;;;;;5112139;22;20044;-64
2022/02/27 09:36:47;;;;;;;1.95;0.60;;;27.90;73.90;;;;;;5089316;23;20224;-66
2022/02/27 09:39:12;;;;;;;1.45;0.60;;;27.90;73.40;;;;;;5133469;23;20030;-66
2022/02/27 09:41:35;;;;;;;1.30;0.98;;;27.90;73.30;;;;;;5125726;23;20020;-64
2022/02/27 09:44:00;;;;;;;3.37;1.03;;;27.90;73.40;;;;;;5130941;23;20307;-63
2022/02/27 09:46:24;;;;;;;1.75;0.70;;;27.80;73.40;;;;;;5131463;23;20027;-67
2022/02/27 09:48:46;;;;;;;1.35;0.70;;;27.80;73.40;;;;;;5099001;23;20012;-65
2022/02/27 09:51:11;;;;;;;2.63;0.80;;;27.80;73.40;;;;;;5135325;23;20107;-66
2022/02/27 09:53:33;;;;;;;1.95;0.90;;;27.80;73.40;;;;;;5139664;23;20012;-67
2022/02/27 09:55:56;;;;;;;2.57;1.10;;;27.70;73.40;;;;;;5135740;23;20035;-71
2022/02/27 09:58:18;;;;;;;1.67;0.85;;;27.70;73.30;;;;;;5138560;23;20012;-69
2022/02/27 10:01:00;;;;;;;3.35;1.25;;;27.70;73.10;;;;;;5136928;23;20016;-66
2022/02/27 10:03:31;;;;;;;2.30;1.10;;;27.70;72.80;;;;;;5130024;23;20024;-66
2022/02/27 10:06:04;;;;;;;2.28;1.10;;;27.70;72.70;;;;;;5120982;23;20119;-67
2022/02/27 10:08:43;;;;;;;3.10;1.20;;;27.60;72.40;;;;;;5121327;23;20016;-65
2022/02/27 10:11:06;;;;;;;2.05;1.33;;;27.60;72.20;;;;;;5121326;23;20031;-64
2022/02/27 10:13:50;;;;;;;5.47;1.00;;;27.50;72.00;;;;;;5125481;23;20105;-71
2022/02/27 10:16:21;;;;;;;3.70;1.65;;;27.50;72.30;;;;;;5120835;23;20066;-67
2022/02/27 10:18:48;;;;;;;6.05;1.17;;;27.50;72.50;;;;;;5129418;23;20068;-66
2022/02/27 10:21:25;;;;;;;3.20;1.00;;;27.50;72.60;;;;;;5120733;23;20012;-66
2022/02/27 10:24:08;;;;;;;2.15;0.80;;;27.50;72.70;;;;;;5121509;23;20023;-66
2022/02/27 10:26:32;;;;;;;2.42;1.05;;;27.60;72.80;;;;;;5127296;23;20020;-68
2022/02/27 10:29:09;;;;;;;1.17;0.68;;;27.60;72.90;;;;;;5124411;23;20012;-70
2022/02/27 10:31:31;;;;;;;2.10;0.77;;;27.60;72.80;;;;;;5125797;23;20055;-67
2022/02/27 10:33:57;;;;;;;2.70;0.88;;;27.60;72.80;;;;;;5126000;23;20475;-75
2022/02/27 10:36:20;;;;;;;1.25;0.60;;;27.60;72.90;;;;;;5132921;23;20053;-68
2022/02/27 10:38:56;;;;;;;2.58;0.93;;;27.60;72.80;;;;;;5125081;23;20039;-66
2022/02/27 10:41:22;;;;;;;1.65;0.88;;;27.60;72.80;;;;;;5128399;23;20123;-72
2022/02/27 10:43:45;;;;;;;1.90;1.00;;;27.60;72.80;;;;;;5124544;23;20043;-62
2022/02/27 10:46:08;;;;;;;1.67;1.00;;;27.60;72.70;;;;;;5131746;23;20019;-62
2022/02/27 10:48:31;;;;;;;1.83;0.85;;;27.60;72.70;;;;;;5127679;23;20020;-62
2022/02/27 10:51:06;;;;;;;1.65;0.80;;;27.60;72.70;;;;;;5126787;23;20020;-64
2022/02/27 10:53:40;;;;;;;2.63;1.00;;;27.60;72.80;;;;;;5130941;23;20141;-67
2022/02/27 10:56:06;;;;;;;2.63;0.85;;;27.60;72.70;;;;;;5134783;23;20012;-65
2022/02/27 10:58:42;;;;;;;1.88;0.93;;;27.60;72.60;;;;;;5128632;23;20329;-64
2022/02/27 11:01:19;;;;;;;2.55;0.90;;;27.60;72.60;;;;;;5134740;23;20343;-62
2022/02/27 11:03:41;;;;;;;2.55;1.05;;;27.60;72.50;;;;;;5133778;23;20237;-64
2022/02/27 11:06:06;;;;;;;3.70;1.00;;;27.60;72.50;;;;;;5102717;23;20012;-65
2022/02/27 11:08:29;;;;;;;2.35;0.93;;;27.60;72.50;;;;;;5126903;23;20114;-66
2022/02/27 11:10:52;;;;;;;3.10;1.08;;;27.60;72.50;;;;;;5132111;23;20115;-65
2022/02/27 11:13:15;;;;;;;4.72;1.30;;;27.70;72.50;;;;;;5129702;23;20023;-73
2022/02/27 11:15:38;;;;;;;3.20;1.20;;;27.60;72.00;;;;;;5128238;23;20020;-69
2022/02/27 11:18:01;;;;;;;7.03;1.63;;;27.60;72.10;;;;;;5129518;23;20012;-70
2022/02/27 11:20:25;;;;;;;3.88;1.30;;;27.60;72.20;;;;;;5130960;23;20016;-67
2022/02/27 11:22:49;;;;;;;4.05;0.95;;;27.60;72.30;;;;;;5129637;23;20020;-68
2022/02/27 11:25:12;;;;;;;2.92;1.40;;;27.60;72.20;;;;;;5134808;23;20020;-67
2022/02/27 11:27:36;;;;;;;4.22;1.40;;;27.60;72.20;;;;;;5130629;23;20416;-67
2022/02/27 11:30:00;;;;;;;3.92;1.30;;;27.60;72.20;;;;;;5128873;23;20016;-67
2022/02/27 11:32:23;;;;;;;8.05;1.00;;;27.60;72.10;;;;;;5135418;23;20019;-69
2022/02/27 11:34:45;;;;;;;2.35;1.10;;;27.60;72.10;;;;;;5120999;23;20114;-65
2022/02/27 11:37:09;;;;;;;3.80;1.20;;;27.50;72.10;;;;;;5127168;23;20043;-62
2022/02/27 11:42:12;;;;;;;3.13;1.23;;;27.50;72.00;;;;;;5128337;23;20304;-67
2022/02/27 11:44:37;;;;;;;6.03;1.20;;;27.50;72.00;;;;;;5134606;23;20028;-71
2022/02/27 11:47:05;;;;;;;3.90;1.60;;;27.50;72.30;;;;;;5132807;23;20012;-72
2022/02/27 11:49:28;;;;;;;3.53;1.10;;;27.50;71.10;;;;;;5127802;23;20660;-71
2022/02/27 11:52:07;;;;;;;12.25;2.00;;;27.40;70.90;;;;;;5127106;23;20542;-67
2022/02/27 11:54:51;;;;;;;5.18;1.63;;;27.40;71.90;;;;;;5131832;23;20015;-68
2022/02/27 11:57:17;;;;;;;6.20;1.40;;;27.30;72.30;;;;;;5131862;23;20012;-63
2022/02/27 11:59:51;;;;;;;7.03;1.50;;;27.30;72.90;;;;;;5096349;23;20017;-63
2022/02/27 12:02:38;;;;;;;3.40;1.42;;;27.30;72.50;;;;;;5128054;23;20046;-64
2022/02/27 12:05:03;;;;;;;5.20;1.35;;;27.30;72.50;;;;;;5125952;23;20030;-62
2022/02/27 12:07:27;;;;;;;3.60;1.30;;;27.30;72.50;;;;;;5135256;23;20361;-61
2022/02/27 12:09:53;;;;;;;4.43;1.35;;;27.30;72.50;;;;;;5137683;23;20016;-63
2022/02/27 12:12:37;;;;;;;3.15;1.25;;;27.30;72.50;;;;;;5132811;23;20027;-62
2022/02/27 12:15:21;;;;;;;3.42;1.17;;;27.30;72.40;;;;;;5133382;23;20164;-64
2022/02/27 12:17:53;;;;;;;2.30;1.08;;;27.30;72.40;;;;;;5131680;23;20380;-62
2022/02/27 12:20:52;;;;;;;3.53;1.15;;;27.30;72.40;;;;;;5138576;23;20015;-62
2022/02/27 12:23:35;;;;;;;4.00;1.20;;;27.30;72.40;;;;;;5132329;23;20825;-66
2022/02/27 12:26:00;;;;;;;2.13;1.07;;;27.20;72.40;;;;;;5132035;23;20098;-66
2022/02/27 12:28:51;;;;;;;4.95;0.85;;;27.20;72.50;;;;;;5135052;23;20808;-65
2022/02/27 12:31:29;;;;;;;3.20;1.30;;;27.20;72.50;;;;;;5141522;23;20376;-63
2022/02/27 12:33:52;;;;;;;1.45;0.85;;;27.20;72.40;;;;;;5124921;23;20097;-65
2022/02/27 12:36:35;;;;;;;3.95;0.85;;;27.20;72.40;;;;;;5139871;23;20016;-61
2022/02/27 12:39:02;;;;;;;3.78;1.15;;;27.10;72.40;;;;;;5140159;23;20016;-64
2022/02/27 12:41:32;;;;;;;3.80;1.00;;;27.10;72.50;;;;;;5137705;23;20643;-63
2022/02/27 12:43:55;;;;;;;3.08;1.42;;;27.10;72.50;;;;;;5150890;23;20016;-66
2022/02/27 12:46:18;;;;;;;3.03;0.80;;;27.10;72.60;;;;;;5146129;23;20050;-66
2022/02/27 12:51:28;;;;;;;1.98;0.88;;;27.10;72.70;;;;;;5145918;23;20090;-66